Time;durP1;ratioP1;P1;durP2;ratioP2;P2;SDS_P1;SDS_P2;PMS_P1;PMS_P2;Temp;Humidity;BMP_temperature;BMP_pressure;BME280_temperature;BME280_humidity;BME280_pressure;Samples;Min_cycle;Max_cycle;Signal;HPM_P1;HPM_P2
2024/04/09 00:01:25;;;;;;;9.77;3.33;;;20.90;48.80;;;;;;5457513;26;20531;-76
2024/04/09 00:03:54;;;;;;;9.30;2.93;;;20.80;47.90;;;;;;5459480;26;20590;-76
2024/04/09 00:06:25;;;;;;;14.93;3.80;;;20.70;60.40;;;;;;5456273;26;20490;-78
2024/04/09 00:08:55;;;;;;;7.47;3.80;;;20.80;47.20;;;;;;5457711;26;20455;-77
2024/04/09 00:11:24;;;;;;;7.67;3.57;;;20.80;48.50;;;;;;5459365;26;20526;-75
2024/04/09 00:13:58;;;;;;;8.53;3.40;;;20.70;46.30;;;;;;5454496;26;20942;-78
2024/04/09 00:16:26;;;;;;;9.03;2.80;;;20.70;46.70;;;;;;5459246;26;20457;-78
2024/04/09 00:18:59;;;;;;;10.37;3.70;;;20.70;47.00;;;;;;5463377;26;20470;-78
2024/04/09 00:21:30;;;;;;;12.73;4.27;;;20.70;46.90;;;;;;5458601;26;20482;-76
2024/04/09 00:24:00;;;;;;;10.80;3.50;;;20.60;46.20;;;;;;5460150;26;20451;-76
2024/04/09 00:26:31;;;;;;;10.87;4.10;;;20.50;45.40;;;;;;5450504;26;20471;-80
2024/04/09 00:29:01;;;;;;;13.13;4.00;;;20.50;45.50;;;;;;5454644;26;20550;-77
2024/04/09 00:31:29;;;;;;;8.87;3.87;;;20.50;45.90;;;;;;5455557;26;20454;-77
2024/04/09 00:33:59;;;;;;;8.63;3.80;;;20.50;47.10;;;;;;5476351;26;20467;-79
2024/04/09 00:36:27;;;;;;;10.73;3.50;;;20.50;46.30;;;;;;5455462;26;20597;-76
2024/04/09 00:39:00;;;;;;;11.33;4.07;;;20.40;44.60;;;;;;5460110;26;20513;-75
2024/04/09 00:41:28;;;;;;;15.60;4.10;;;20.40;44.50;;;;;;5456684;26;20896;-74
2024/04/09 00:43:57;;;;;;;8.03;3.57;;;20.40;59.30;;;;;;5455109;26;20874;-75
2024/04/09 00:46:25;;;;;;;7.07;4.10;;;20.40;45.60;;;;;;5459497;26;21679;-78
2024/04/09 00:48:55;;;;;;;7.57;3.20;;;20.40;61.30;;;;;;5457186;26;20914;-76
2024/04/09 00:51:23;;;;;;;9.60;3.30;;;20.30;45.60;;;;;;5453687;26;20455;-76
2024/04/09 00:53:54;;;;;;;12.63;3.93;;;20.30;44.30;;;;;;5463132;26;20482;-75
2024/04/09 00:56:24;;;;;;;9.80;3.43;;;20.40;45.70;;;;;;5455942;26;20506;-75
2024/04/09 00:58:53;;;;;;;8.77;3.70;;;20.30;46.60;;;;;;5459413;26;20571;-75
2024/04/09 01:01:21;;;;;;;7.83;3.33;;;20.30;45.20;;;;;;5452423;26;20534;-76
2024/04/09 01:03:51;;;;;;;5.77;3.47;;;20.30;46.30;;;;;;5456400;26;21114;-76
2024/04/09 01:06:18;;;;;;;12.63;4.47;;;20.30;44.60;;;;;;5455809;26;20483;-75
2024/04/09 01:08:48;;;;;;;9.70;3.50;;;20.30;46.20;;;;;;5453841;26;20479;-74
2024/04/09 01:11:15;;;;;;;9.47;3.47;;;20.30;47.30;;;;;;5458789;26;20471;-75
2024/04/09 01:13:50;;;;;;;10.00;4.27;;;20.30;47.70;;;;;;5454978;26;20563;-77
2024/04/09 01:16:18;;;;;;;11.53;4.10;;;20.30;45.10;;;;;;5456605;26;20554;-76
2024/04/09 01:18:48;;;;;;;10.43;3.47;;;20.30;46.80;;;;;;5455892;26;20551;-77
2024/04/09 01:21:15;;;;;;;12.90;3.37;;;20.30;49.90;;;;;;5454549;26;20465;-77
2024/04/09 01:23:48;;;;;;;11.73;4.13;;;20.30;47.20;;;;;;5457260;26;20592;-77
2024/04/09 01:26:17;;;;;;;15.90;3.93;;;20.30;47.30;;;;;;5457011;26;20473;-76
2024/04/09 01:28:47;;;;;;;7.00;3.40;;;20.30;47.30;;;;;;5456242;26;20469;-74
2024/04/09 01:31:15;;;;;;;17.50;5.80;;;20.30;47.60;;;;;;5456179;26;20569;-77
2024/04/09 01:33:46;;;;;;;10.30;4.10;;;20.20;47.20;;;;;;5460995;26;20854;-77
2024/04/09 01:36:13;;;;;;;21.53;4.23;;;20.20;47.60;;;;;;5458976;26;20506;-78
2024/04/09 01:38:43;;;;;;;7.20;3.40;;;20.20;47.60;;;;;;5453956;26;20577;-75
2024/04/09 01:41:13;;;;;;;11.73;3.70;;;20.20;47.30;;;;;;5457996;26;20517;-77
2024/04/09 01:43:43;;;;;;;10.17;3.80;;;20.10;47.80;;;;;;5452826;26;21478;-75
2024/04/09 01:46:10;;;;;;;14.20;4.40;;;20.00;47.30;;;;;;5456645;26;20519;-78
2024/04/09 01:48:42;;;;;;;8.93;3.70;;;20.00;47.10;;;;;;5457511;26;20463;-77
2024/04/09 01:51:10;;;;;;;6.47;3.73;;;20.00;47.40;;;;;;5453437;26;20546;-75
2024/04/09 01:53:43;;;;;;;15.13;3.30;;;20.00;47.90;;;;;;5460572;26;20511;-78
2024/04/09 01:56:13;;;;;;;17.03;3.63;;;20.00;46.70;;;;;;5452191;26;21152;-75
2024/04/09 01:58:44;;;;;;;11.10;3.50;;;19.90;48.50;;;;;;5453779;26;20584;-78
2024/04/09 02:01:11;;;;;;;16.07;4.60;;;19.90;47.60;;;;;;5455168;26;20458;-76
2024/04/09 02:03:42;;;;;;;9.53;3.67;;;19.90;49.10;;;;;;5458830;26;20459;-75
2024/04/09 02:06:16;;;;;;;9.07;3.50;;;19.90;48.30;;;;;;5455467;26;21954;-77
2024/04/09 02:08:46;;;;;;;11.37;4.20;;;19.90;49.50;;;;;;5456263;26;20517;-76
2024/04/09 02:11:17;;;;;;;12.60;4.30;;;19.90;49.40;;;;;;5455476;26;20556;-74
2024/04/09 02:13:47;;;;;;;9.23;3.80;;;19.80;50.00;;;;;;5454641;26;20478;-75
2024/04/09 02:16:16;;;;;;;9.93;4.40;;;19.80;49.80;;;;;;5456198;26;20517;-76
2024/04/09 02:18:46;;;;;;;12.67;4.70;;;19.70;49.30;;;;;;5455707;26;20491;-75
2024/04/09 02:21:15;;;;;;;9.70;3.93;;;19.70;50.60;;;;;;5456199;26;21038;-76
2024/04/09 02:23:45;;;;;;;11.63;4.73;;;19.80;50.90;;;;;;5456603;26;20482;-78
2024/04/09 02:26:12;;;;;;;10.67;3.80;;;19.80;51.20;;;;;;5458254;26;20568;-76
2024/04/09 02:28:45;;;;;;;10.07;4.20;;;19.70;51.10;;;;;;5459396;26;20513;-78
2024/04/09 02:31:13;;;;;;;11.37;4.30;;;19.70;49.10;;;;;;5459132;26;20469;-76
2024/04/09 02:33:42;;;;;;;8.80;3.77;;;19.60;49.20;;;;;;5460806;26;20548;-78
2024/04/09 02:36:11;;;;;;;14.33;4.07;;;19.60;48.30;;;;;;5464627;26;21041;-76
2024/04/09 02:38:43;;;;;;;11.93;5.20;;;19.70;48.90;;;;;;5459370;26;20522;-79
2024/04/09 02:41:13;;;;;;;10.20;3.80;;;19.60;50.10;;;;;;5459777;26;20545;-79
2024/04/09 02:43:46;;;;;;;11.17;3.43;;;19.60;47.80;;;;;;5460650;26;20528;-78
2024/04/09 02:46:13;;;;;;;16.80;3.63;;;19.60;49.90;;;;;;5463119;26;20473;-78
2024/04/09 02:48:43;;;;;;;8.60;3.97;;;19.70;51.00;;;;;;5458681;26;20520;-77
2024/04/09 02:51:11;;;;;;;17.10;4.83;;;19.70;48.90;;;;;;5460790;26;20466;-77
2024/04/09 02:53:41;;;;;;;13.43;4.40;;;19.70;48.20;;;;;;5458968;26;20489;-77
2024/04/09 02:56:10;;;;;;;12.60;4.40;;;19.80;48.20;;;;;;5459654;26;21071;-79
2024/04/09 02:58:40;;;;;;;9.07;4.63;;;19.90;49.60;;;;;;5461921;26;20465;-77
2024/04/09 03:01:11;;;;;;;11.77;4.47;;;19.80;48.30;;;;;;5456986;26;20466;-74
2024/04/09 03:03:41;;;;;;;21.30;5.50;;;19.90;48.10;;;;;;5459381;26;21287;-76
2024/04/09 03:06:11;;;;;;;9.90;4.30;;;20.00;48.90;;;;;;5457858;26;21122;-77
2024/04/09 03:08:41;;;;;;;8.67;4.40;;;19.90;50.20;;;;;;5459568;26;20471;-77
2024/04/09 03:11:12;;;;;;;11.57;4.07;;;19.90;48.80;;;;;;5461558;26;20556;-76
2024/04/09 03:13:44;;;;;;;13.40;4.20;;;19.90;51.30;;;;;;5459039;26;20503;-75
2024/04/09 03:16:16;;;;;;;13.00;4.23;;;19.90;51.00;;;;;;5456149;26;20470;-77
2024/04/09 03:18:47;;;;;;;13.07;3.90;;;19.80;50.90;;;;;;5458433;26;20478;-77
2024/04/09 03:21:14;;;;;;;10.43;3.67;;;19.80;51.20;;;;;;5464370;26;20478;-78
2024/04/09 03:23:44;;;;;;;11.50;4.07;;;19.60;49.60;;;;;;5462740;26;20472;-78
2024/04/09 03:26:13;;;;;;;11.77;4.40;;;19.60;49.40;;;;;;5457137;26;20467;-77
2024/04/09 03:28:43;;;;;;;15.80;4.40;;;19.60;51.00;;;;;;5456862;26;20517;-75
2024/04/09 03:31:10;;;;;;;12.03;4.20;;;19.50;50.30;;;;;;5461936;26;20526;-77
2024/04/09 03:33:42;;;;;;;16.33;4.97;;;19.40;49.40;;;;;;5459906;26;20854;-77
2024/04/09 03:36:10;;;;;;;12.53;4.37;;;19.30;49.50;;;;;;5458082;26;21144;-78
2024/04/09 03:38:40;;;;;;;9.93;3.80;;;19.30;48.70;;;;;;5456895;26;20897;-78
2024/04/09 03:41:09;;;;;;;7.80;4.23;;;19.30;57.40;;;;;;5465037;26;20482;-77
2024/04/09 03:43:38;;;;;;;13.97;5.17;;;19.30;48.90;;;;;;5461487;26;20619;-78
2024/04/09 03:46:07;;;;;;;15.83;5.33;;;19.30;49.50;;;;;;5452179;26;20498;-78
2024/04/09 03:48:37;;;;;;;8.23;3.73;;;19.30;50.00;;;;;;5458859;26;20476;-76
2024/04/09 03:51:08;;;;;;;15.40;5.00;;;19.30;48.70;;;;;;5461489;26;20521;-78
2024/04/09 03:53:39;;;;;;;10.33;3.53;;;19.30;49.80;;;;;;5457541;26;20458;-76
2024/04/09 03:56:06;;;;;;;16.80;4.67;;;19.40;50.30;;;;;;5453816;26;20518;-77
2024/04/09 03:58:40;;;;;;;18.03;4.80;;;19.30;49.70;;;;;;5451194;26;20459;-75
2024/04/09 04:01:08;;;;;;;11.87;4.40;;;19.30;51.10;;;;;;5459566;26;21222;-77
2024/04/09 04:03:42;;;;;;;19.92;6.10;;;19.20;51.70;;;;;;5451617;26;20456;-79
2024/04/09 04:06:12;;;;;;;14.73;5.37;;;19.10;51.80;;;;;;5457027;26;20283;-77
2024/04/09 04:08:44;;;;;;;13.30;5.10;;;19.20;51.60;;;;;;5464048;26;20537;-79
2024/04/09 04:11:14;;;;;;;16.97;4.30;;;19.20;51.40;;;;;;5467754;26;20931;-82
2024/04/09 04:13:44;;;;;;;18.00;5.77;;;19.10;51.00;;;;;;5462369;26;20493;-81
2024/04/09 04:16:12;;;;;;;15.17;5.70;;;19.10;50.00;;;;;;5460871;26;20477;-81
2024/04/09 04:18:47;;;;;;;17.03;6.47;;;19.10;50.60;;;;;;5459575;26;21011;-79
2024/04/09 04:21:19;;;;;;;9.67;4.70;;;19.10;51.40;;;;;;5457137;26;20470;-80
2024/04/09 04:23:51;;;;;;;19.70;5.10;;;19.10;52.80;;;;;;5460384;26;20578;-80
2024/04/09 04:26:19;;;;;;;12.77;5.00;;;19.10;53.90;;;;;;5470253;26;20477;-80
2024/04/09 04:28:50;;;;;;;14.30;5.80;;;19.00;52.40;;;;;;5463879;26;20473;-81
2024/04/09 04:31:19;;;;;;;14.03;4.70;;;18.90;50.20;;;;;;5459220;26;20477;-78
2024/04/09 04:33:50;;;;;;;16.47;4.63;;;18.90;52.50;;;;;;5458070;26;20584;-79
2024/04/09 04:36:20;;;;;;;19.57;5.77;;;18.90;52.20;;;;;;5453021;26;21413;-77
2024/04/09 04:38:52;;;;;;;15.30;5.50;;;18.80;50.60;;;;;;5457894;26;20485;-79
2024/04/09 04:41:20;;;;;;;18.20;4.83;;;18.90;51.80;;;;;;5462686;26;20473;-80
2024/04/09 04:43:50;;;;;;;17.67;4.77;;;18.90;52.60;;;;;;5463873;26;20812;-79
2024/04/09 04:46:18;;;;;;;22.87;6.13;;;18.90;52.20;;;;;;5459036;26;20494;-79
2024/04/09 04:48:48;;;;;;;19.63;6.00;;;18.90;52.80;;;;;;5460774;26;20546;-77
2024/04/09 04:51:15;;;;;;;14.97;5.67;;;18.90;52.00;;;;;;5463606;26;20525;-78
2024/04/09 04:53:48;;;;;;;17.63;6.43;;;18.90;52.30;;;;;;5455152;26;20454;-79
2024/04/09 04:56:15;;;;;;;12.57;5.10;;;18.90;51.70;;;;;;5451559;26;20457;-79
2024/04/09 04:58:45;;;;;;;22.20;6.20;;;18.90;52.20;;;;;;5458158;26;20516;-76
2024/04/09 05:01:12;;;;;;;18.30;6.53;;;18.90;53.00;;;;;;5447390;26;21070;-79
2024/04/09 05:03:42;;;;;;;18.77;5.50;;;18.90;51.80;;;;;;5457398;26;20531;-79
2024/04/09 05:06:10;;;;;;;18.27;6.63;;;18.90;52.60;;;;;;5457087;26;21059;-79
2024/04/09 05:08:40;;;;;;;19.00;6.43;;;18.90;52.60;;;;;;5456441;26;20459;-79
2024/04/09 05:11:11;;;;;;;12.40;5.17;;;19.00;52.70;;;;;;5456820;26;20462;-78
2024/04/09 05:13:41;;;;;;;15.40;6.00;;;18.90;52.90;;;;;;5458087;26;20931;-79
2024/04/09 05:16:08;;;;;;;21.60;5.97;;;19.00;53.00;;;;;;5454840;26;21154;-80
2024/04/09 05:18:38;;;;;;;24.43;7.80;;;19.00;53.60;;;;;;5456007;26;20518;-78
2024/04/09 05:21:08;;;;;;;16.03;5.43;;;19.00;54.20;;;;;;5454693;26;20523;-78
2024/04/09 05:23:35;;;;;;;16.67;5.10;;;19.00;54.50;;;;;;5453742;26;20470;-78
2024/04/09 05:26:05;;;;;;;18.33;5.25;;;19.00;55.10;;;;;;5456284;26;20385;-79
2024/04/09 05:28:35;;;;;;;15.63;6.27;;;18.80;54.00;;;;;;5448510;26;20779;-79
2024/04/09 05:31:06;;;;;;;14.40;5.20;;;19.00;55.60;;;;;;5465186;26;20475;-80
2024/04/09 05:33:33;;;;;;;20.13;6.30;;;19.00;56.90;;;;;;5462798;26;20523;-80
2024/04/09 05:36:03;;;;;;;13.03;4.60;;;19.00;57.30;;;;;;5459255;26;21077;-79
2024/04/09 05:38:30;;;;;;;9.80;4.07;;;19.10;57.60;;;;;;5458176;26;20461;-79
2024/04/09 05:41:04;;;;;;;9.10;4.00;;;19.10;58.70;;;;;;5460254;26;21034;-80
2024/04/09 05:43:31;;;;;;;8.37;3.00;;;19.10;58.80;;;;;;5456536;26;20518;-80
2024/04/09 05:46:04;;;;;;;10.57;3.43;;;19.10;59.00;;;;;;5461992;26;20515;-75
2024/04/09 05:48:31;;;;;;;8.53;3.40;;;19.10;59.60;;;;;;5456818;26;21159;-76
2024/04/09 05:51:03;;;;;;;8.03;2.90;;;19.10;61.40;;;;;;5456890;26;20581;-77
2024/04/09 05:53:30;;;;;;;6.60;2.90;;;19.20;63.10;;;;;;5461591;26;20473;-75
2024/04/09 05:56:00;;;;;;;13.73;3.23;;;19.20;64.30;;;;;;5471888;26;20458;-75
2024/04/09 05:58:27;;;;;;;8.97;2.47;;;19.20;65.20;;;;;;5456182;26;21182;-74
2024/04/09 06:00:57;;;;;;;9.43;2.70;;;19.30;64.60;;;;;;5456368;26;20815;-75
2024/04/09 06:03:27;;;;;;;8.07;3.33;;;19.30;66.30;;;;;;5459536;26;20596;-75
2024/04/09 06:05:58;;;;;;;5.10;2.80;;;19.30;68.10;;;;;;5459722;26;20559;-73
2024/04/09 06:08:26;;;;;;;6.20;2.53;;;19.40;68.40;;;;;;5462193;26;20588;-75
2024/04/09 06:10:56;;;;;;;12.77;3.60;;;19.40;69.60;;;;;;5465397;26;20674;-77
2024/04/09 06:13:23;;;;;;;4.33;2.43;;;19.50;72.60;;;;;;5462302;26;21493;-75
2024/04/09 06:15:53;;;;;;;7.27;2.30;;;19.50;73.20;;;;;;5460094;26;20572;-77
2024/04/09 06:18:20;;;;;;;3.83;2.27;;;19.60;73.20;;;;;;5465520;26;20474;-76
2024/04/09 06:20:53;;;;;;;4.47;2.27;;;19.60;73.50;;;;;;5459293;26;20482;-75
2024/04/09 06:23:21;;;;;;;6.30;2.70;;;19.60;75.40;;;;;;5460338;26;20461;-72
2024/04/09 06:25:58;;;;;;;3.33;2.70;;;19.70;75.80;;;;;;5460587;26;20455;-75
2024/04/09 06:28:25;;;;;;;4.83;2.97;;;19.80;76.90;;;;;;5455861;26;20516;-74
2024/04/09 06:30:55;;;;;;;9.77;3.40;;;19.80;77.70;;;;;;5456947;26;20544;-76
2024/04/09 06:33:25;;;;;;;8.47;2.30;;;19.90;93.50;;;;;;5465196;26;20543;-75
2024/04/09 06:35:57;;;;;;;3.97;1.87;;;20.00;79.80;;;;;;5459928;26;20530;-76
2024/04/09 06:38:31;;;;;;;6.63;3.33;;;20.00;80.70;;;;;;5461790;26;21015;-75
2024/04/09 06:41:01;;;;;;;12.87;2.87;;;20.00;81.90;;;;;;5459315;26;20470;-75
2024/04/09 06:43:31;;;;;;;7.23;2.13;;;20.10;83.20;;;;;;5461182;26;20515;-76
2024/04/09 06:45:59;;;;;;;5.93;1.80;;;20.10;84.90;;;;;;5461884;26;20466;-77
2024/04/09 06:48:29;;;;;;;2.00;1.80;;;20.20;87.00;;;;;;5462355;26;20584;-74
2024/04/09 06:50:59;;;;;;;5.53;2.60;;;20.30;87.00;;;;;;5463129;26;20574;-73
2024/04/09 06:53:29;;;;;;;7.03;2.43;;;20.30;88.20;;;;;;5464693;26;21023;-76
2024/04/09 06:55:56;;;;;;;9.17;2.40;;;20.40;87.80;;;;;;5462295;26;20475;-76
2024/04/09 06:58:26;;;;;;;4.73;2.20;;;20.40;88.50;;;;;;5460968;26;20833;-80
2024/04/09 07:00:54;;;;;;;3.73;2.30;;;20.40;88.20;;;;;;5457120;26;20511;-76
2024/04/09 07:03:24;;;;;;;8.00;2.80;;;20.30;89.10;;;;;;5458706;26;20478;-76
2024/04/09 07:05:52;;;;;;;6.10;2.37;;;20.20;88.00;;;;;;5463341;26;21016;-77
2024/04/09 07:08:24;;;;;;;9.73;2.83;;;20.20;88.50;;;;;;5463302;26;20530;-78
2024/04/09 07:10:55;;;;;;;5.37;2.10;;;20.10;88.90;;;;;;5463144;26;20479;-76
2024/04/09 07:13:26;;;;;;;3.80;2.07;;;20.00;88.80;;;;;;5465817;26;20556;-76
2024/04/09 07:15:59;;;;;;;4.17;2.00;;;20.00;87.70;;;;;;5456821;26;22186;-75
2024/04/09 07:18:28;;;;;;;5.97;2.03;;;19.90;90.00;;;;;;5457189;26;20527;-77
2024/04/09 07:20:56;;;;;;;9.40;2.23;;;19.90;90.00;;;;;;5460370;26;20514;-78
2024/04/09 07:23:29;;;;;;;4.43;1.83;;;19.90;90.80;;;;;;5460781;26;20519;-76
2024/04/09 07:25:56;;;;;;;4.33;1.83;;;19.70;90.60;;;;;;5463279;26;20951;-77
2024/04/09 07:28:26;;;;;;;3.70;2.00;;;19.70;99.30;;;;;;5458776;26;20602;-76
2024/04/09 07:30:53;;;;;;;4.87;2.33;;;19.50;90.50;;;;;;5454068;26;20635;-76
2024/04/09 07:33:24;;;;;;;6.33;2.13;;;19.40;91.20;;;;;;5463031;26;20513;-76
2024/04/09 07:35:57;;;;;;;2.43;2.03;;;19.40;91.90;;;;;;5461597;26;20447;-75
2024/04/09 07:38:30;;;;;;;3.73;1.90;;;19.30;92.10;;;;;;5464252;26;20485;-75
2024/04/09 07:40:57;;;;;;;3.70;1.87;;;18.90;91.00;;;;;;5464324;26;20535;-75
2024/04/09 07:43:30;;;;;;;4.53;1.80;;;18.80;90.70;;;;;;5460412;26;20458;-76
2024/04/09 07:46:04;;;;;;;3.03;1.50;;;18.80;90.80;;;;;;5460385;26;20534;-76
2024/04/09 07:48:35;;;;;;;3.67;1.50;;;18.80;91.60;;;;;;5459803;26;20466;-74
2024/04/09 07:51:03;;;;;;;2.77;1.70;;;18.80;91.90;;;;;;5458084;26;21098;-78
2024/04/09 07:53:36;;;;;;;2.93;1.60;;;18.60;91.80;;;;;;5464277;26;20548;-75
2024/04/09 07:56:04;;;;;;;3.70;2.33;;;18.60;92.60;;;;;;5465368;26;20475;-74
2024/04/09 07:58:36;;;;;;;1.37;1.27;;;18.50;91.60;;;;;;5464845;26;21353;-74
2024/04/09 08:01:04;;;;;;;3.10;1.40;;;18.40;91.30;;;;;;5456044;26;20461;-76
2024/04/09 08:03:37;;;;;;;4.23;1.20;;;18.20;90.00;;;;;;5456242;26;20521;-75
2024/04/09 08:06:06;;;;;;;3.97;1.27;;;18.00;82.50;;;;;;5460678;26;21300;-75
2024/04/09 08:08:39;;;;;;;2.63;1.10;;;18.00;80.70;;;;;;5464701;26;20469;-77
2024/04/09 08:11:11;;;;;;;1.93;1.10;;;17.70;70.20;;;;;;5464473;26;20481;-77
2024/04/09 08:13:41;;;;;;;2.33;0.90;;;17.50;66.70;;;;;;5459838;26;20542;-76
2024/04/09 08:16:10;;;;;;;1.00;1.00;;;17.50;65.70;;;;;;5462429;26;20538;-76
2024/04/09 08:18:40;;;;;;;2.43;0.97;;;17.40;64.80;;;;;;5457490;26;20511;-76
2024/04/09 08:21:10;;;;;;;1.60;0.90;;;17.00;57.40;;;;;;5458521;26;20463;-75
2024/04/09 08:23:42;;;;;;;1.00;0.83;;;16.90;57.00;;;;;;5459304;26;20535;-76
2024/04/09 08:26:10;;;;;;;0.97;0.90;;;16.80;56.20;;;;;;5456012;26;20513;-78
2024/04/09 08:28:41;;;;;;;3.00;1.10;;;17.00;57.00;;;;;;5458456;26;20457;-75
2024/04/09 08:31:13;;;;;;;1.00;1.00;;;16.90;54.50;;;;;;5461153;26;20575;-75
2024/04/09 08:33:43;;;;;;;1.37;1.10;;;16.90;53.80;;;;;;5460651;26;20533;-75
2024/04/09 08:36:11;;;;;;;1.00;1.00;;;16.90;53.30;;;;;;5459240;26;20457;-76
2024/04/09 08:38:44;;;;;;;1.47;1.27;;;16.80;51.00;;;;;;5462906;26;20534;-77
2024/04/09 08:41:11;;;;;;;2.10;1.07;;;16.70;49.90;;;;;;5463472;26;20843;-74
2024/04/09 08:43:42;;;;;;;2.33;1.00;;;16.50;45.50;;;;;;5456942;26;20873;-77
2024/04/09 08:46:11;;;;;;;6.30;1.30;;;16.50;45.20;;;;;;5464290;26;20547;-75
2024/04/09 08:48:42;;;;;;;1.27;0.90;;;16.50;43.80;;;;;;5464970;26;20521;-75
2024/04/09 08:51:10;;;;;;;3.13;1.00;;;16.50;42.90;;;;;;5460347;26;20450;-76
2024/04/09 08:53:47;;;;;;;0.93;0.90;;;16.40;40.60;;;;;;5458196;26;20474;-75
2024/04/09 08:56:14;;;;;;;0.90;0.90;;;16.30;41.00;;;;;;5464104;26;20476;-73
2024/04/09 08:58:45;;;;;;;1.30;1.03;;;16.30;41.90;;;;;;5465969;26;20477;-73
2024/04/09 09:01:27;;;;;;;4.00;0.90;;;16.30;53.70;;;;;;5461111;26;20463;-73
2024/04/09 09:03:57;;;;;;;0.80;0.80;;;16.30;39.70;;;;;;5457850;26;20456;-76
2024/04/09 09:06:25;;;;;;;1.00;0.90;;;16.40;39.60;;;;;;5458664;26;20526;-73
2024/04/09 09:08:58;;;;;;;2.33;0.90;;;16.30;38.60;;;;;;5460862;26;20521;-75
2024/04/09 09:11:26;;;;;;;1.10;1.00;;;16.20;37.00;;;;;;5461071;26;20465;-76
2024/04/09 09:14:07;;;;;;;1.07;1.00;;;16.10;35.10;;;;;;5461414;26;20583;-77
2024/04/09 09:16:34;;;;;;;7.00;1.10;;;16.00;35.00;;;;;;5458248;26;20930;-73
2024/04/09 09:19:06;;;;;;;2.13;0.90;;;15.80;33.30;;;;;;5458221;26;20464;-77
2024/04/09 09:21:34;;;;;;;1.90;0.80;;;16.00;33.80;;;;;;5461884;26;20480;-73
2024/04/09 09:24:08;;;;;;;1.70;0.80;;;16.00;32.90;;;;;;5468776;26;20519;-74
2024/04/09 09:26:35;;;;;;;1.00;0.90;;;15.90;32.20;;;;;;5461091;26;20508;-74
2024/04/09 09:29:07;;;;;;;0.80;0.80;;;15.90;31.20;;;;;;5465770;26;20546;-75
2024/04/09 09:31:39;;;;;;;1.87;0.90;;;15.90;32.00;;;;;;5466877;26;20535;-75
2024/04/09 09:34:11;;;;;;;3.20;0.90;;;16.00;32.20;;;;;;5464368;26;20519;-76
2024/04/09 09:36:39;;;;;;;1.63;0.90;;;16.00;31.90;;;;;;5463132;26;21541;-75
2024/04/09 09:39:14;;;;;;;0.97;0.97;;;15.90;31.10;;;;;;5462042;26;20580;-73
2024/04/09 09:41:43;;;;;;;0.87;0.87;;;15.70;28.60;;;;;;5461664;26;20466;-75
2024/04/09 09:44:16;;;;;;;3.87;0.90;;;15.60;28.40;;;;;;5467708;26;20470;-74
2024/04/09 09:46:45;;;;;;;0.87;0.70;;;15.60;27.30;;;;;;5467850;26;21040;-77
2024/04/09 09:49:16;;;;;;;0.90;0.80;;;15.40;25.80;;;;;;5462432;26;20520;-78
2024/04/09 09:51:46;;;;;;;1.77;0.97;;;15.40;26.90;;;;;;5495669;26;20535;-79
2024/04/09 09:54:19;;;;;;;0.93;0.93;;;15.40;26.50;;;;;;5467549;26;20474;-79
2024/04/09 09:56:50;;;;;;;1.23;0.80;;;15.30;25.90;;;;;;5465438;26;20520;-80
2024/04/09 09:59:23;;;;;;;0.90;0.90;;;15.20;25.60;;;;;;5463455;26;20591;-77
2024/04/09 10:01:52;;;;;;;2.20;0.90;;;15.20;26.00;;;;;;5462334;26;20537;-78
2024/04/09 10:04:24;;;;;;;0.93;0.90;;;15.30;26.80;;;;;;5459060;26;20468;-78
2024/04/09 10:06:56;;;;;;;0.90;0.90;;;15.20;25.30;;;;;;5469655;26;21079;-78
2024/04/09 10:09:44;;;;;;;1.10;1.00;;;15.20;26.00;;;;;;5463096;26;20467;-79
2024/04/09 10:12:22;;;;;;;1.47;0.97;;;15.30;27.20;;;;;;5464812;26;20476;-79
2024/04/09 10:14:59;;;;;;;0.80;0.80;;;15.20;25.80;;;;;;5472889;26;20999;-79
2024/04/09 10:17:46;;;;;;;2.97;0.90;;;15.10;25.60;;;;;;5462635;26;20511;-80
2024/04/09 10:20:22;;;;;;;1.27;0.80;;;15.20;26.50;;;;;;5465396;26;20825;-79
2024/04/09 10:22:52;;;;;;;0.70;0.70;;;15.00;23.20;;;;;;5463066;26;20551;-80
2024/04/09 10:25:26;;;;;;;1.17;0.80;;;14.60;26.30;;;;;;5462416;26;21153;-79
2024/04/09 10:28:01;;;;;;;1.75;0.90;;;14.80;21.40;;;;;;5464350;26;20398;-80
2024/04/09 10:30:34;;;;;;;2.70;0.90;;;14.70;21.70;;;;;;5457602;26;20285;-79
2024/04/09 10:33:03;;;;;;;1.30;0.80;;;14.70;20.40;;;;;;5457130;26;20538;-76
2024/04/09 10:35:34;;;;;;;3.40;0.90;;;14.80;20.70;;;;;;5463705;26;20481;-77
2024/04/09 10:38:04;;;;;;;1.00;0.80;;;14.60;19.90;;;;;;5470422;26;20478;-76
2024/04/09 10:40:37;;;;;;;0.70;0.70;;;14.70;20.70;;;;;;5464102;26;20472;-79
2024/04/09 10:43:07;;;;;;;1.47;0.93;;;14.70;20.20;;;;;;5472916;26;20484;-79
2024/04/09 10:45:38;;;;;;;0.90;0.90;;;14.80;21.30;;;;;;5466448;26;20525;-76
2024/04/09 10:48:22;;;;;;;2.10;0.80;;;14.90;21.30;;;;;;5463789;26;22572;-77
2024/04/09 10:50:53;;;;;;;1.77;0.80;;;15.00;21.10;;;;;;5456982;26;20535;-77
2024/04/09 10:53:21;;;;;;;1.27;0.80;;;15.00;21.10;;;;;;5458202;26;21118;-79
2024/04/09 10:56:02;;;;;;;2.40;0.80;;;15.00;21.70;;;;;;5459269;26;20519;-79
2024/04/09 10:58:30;;;;;;;3.60;0.90;;;15.00;21.50;;;;;;5462510;26;20484;-80
2024/04/09 11:01:00;;;;;;;1.90;0.90;;;14.90;19.90;;;;;;5456421;26;20470;-77
2024/04/09 11:03:27;;;;;;;1.00;0.77;;;14.60;18.30;;;;;;5463696;26;20461;-76
2024/04/09 11:05:59;;;;;;;1.27;0.70;;;14.70;19.00;;;;;;5456548;26;20577;-78
2024/04/09 11:08:28;;;;;;;2.00;0.80;;;14.70;19.10;;;;;;5454340;26;20620;-78
2024/04/09 11:11:03;;;;;;;0.90;0.70;;;14.70;19.40;;;;;;5448043;26;20468;-77
2024/04/09 11:13:31;;;;;;;1.10;0.80;;;14.50;17.30;;;;;;5456717;26;21031;-78
2024/04/09 11:16:02;;;;;;;1.33;0.90;;;14.60;18.40;;;;;;5459354;26;20570;-79
2024/04/09 11:18:30;;;;;;;0.90;0.90;;;14.70;19.00;;;;;;5460703;26;20514;-77
2024/04/09 11:21:03;;;;;;;1.20;1.10;;;14.60;18.20;;;;;;5464664;26;21154;-76
2024/04/09 11:23:31;;;;;;;0.80;0.80;;;14.60;18.10;;;;;;5465840;26;20518;-76
2024/04/09 11:26:08;;;;;;;1.97;1.07;;;14.60;18.90;;;;;;5458824;26;20584;-81
2024/04/09 11:28:35;;;;;;;1.07;0.97;;;14.60;18.70;;;;;;5464627;26;21305;-81
2024/04/09 11:31:08;;;;;;;1.03;0.80;;;14.60;19.40;;;;;;5463984;26;20478;-79
2024/04/09 11:33:38;;;;;;;0.80;0.80;;;14.50;18.40;;;;;;5463065;26;20477;-79
2024/04/09 11:36:11;;;;;;;1.87;1.03;;;14.40;29.30;;;;;;5459291;26;20523;-78
2024/04/09 11:38:53;;;;;;;1.87;0.90;;;14.50;19.90;;;;;;5456847;26;20510;-80
2024/04/09 11:41:26;;;;;;;1.17;1.00;;;14.50;19.00;;;;;;5467497;26;21026;-80
2024/04/09 11:43:58;;;;;;;1.00;0.90;;;14.40;18.10;;;;;;5460329;26;20474;-79
2024/04/09 11:46:28;;;;;;;0.97;0.87;;;14.40;18.10;;;;;;5464010;26;20511;-79
2024/04/09 11:48:56;;;;;;;0.90;0.90;;;14.40;18.20;;;;;;5459454;26;20472;-80
2024/04/09 11:51:31;;;;;;;1.00;1.00;;;14.30;16.90;;;;;;5456252;26;20471;-81
2024/04/09 11:53:59;;;;;;;1.60;0.80;;;14.30;17.50;;;;;;5457596;26;21039;-80
2024/04/09 11:56:38;;;;;;;0.97;0.93;;;14.50;17.90;;;;;;5463882;26;20475;-80
2024/04/09 11:59:06;;;;;;;1.17;0.80;;;14.40;17.70;;;;;;5458827;26;20752;-79
2024/04/09 12:01:37;;;;;;;1.90;0.90;;;14.50;18.90;;;;;;5461061;26;20550;-77
2024/04/09 12:04:04;;;;;;;0.80;0.80;;;14.60;18.30;;;;;;5460837;26;20475;-81
2024/04/09 12:06:35;;;;;;;0.70;0.70;;;14.40;17.70;;;;;;5462478;26;21077;-79
2024/04/09 12:09:03;;;;;;;1.00;0.90;;;14.40;16.20;;;;;;5457520;26;20518;-82
2024/04/09 12:11:38;;;;;;;1.13;0.80;;;14.40;16.30;;;;;;5455890;26;20474;-79
2024/04/09 12:14:06;;;;;;;1.07;0.83;;;14.40;16.00;;;;;;5463193;26;20480;-79
2024/04/09 12:16:42;;;;;;;1.23;1.13;;;14.30;16.30;;;;;;5456984;26;21006;-78
2024/04/09 12:19:11;;;;;;;0.80;0.80;;;14.40;16.60;;;;;;5458177;26;20462;-77
2024/04/09 12:21:41;;;;;;;0.70;0.70;;;14.30;17.90;;;;;;5459386;26;20480;-78
2024/04/09 12:24:10;;;;;;;1.47;0.80;;;14.50;18.30;;;;;;5469458;26;20446;-81
2024/04/09 12:26:43;;;;;;;1.87;0.80;;;14.50;18.60;;;;;;5461609;26;20458;-80
2024/04/09 12:29:10;;;;;;;0.80;0.80;;;14.40;18.60;;;;;;5459603;26;20471;-80
2024/04/09 12:31:41;;;;;;;0.80;0.80;;;14.50;19.80;;;;;;5457876;26;20788;-79
2024/04/09 12:34:08;;;;;;;1.83;0.87;;;14.40;19.00;;;;;;5459636;26;20472;-77
2024/04/09 12:36:38;;;;;;;0.80;0.80;;;14.30;17.70;;;;;;5458518;26;20513;-78
2024/04/09 12:39:06;;;;;;;0.90;0.90;;;14.10;16.20;;;;;;5460274;26;20466;-80
2024/04/09 12:41:36;;;;;;;1.70;1.00;;;14.20;18.00;;;;;;5459257;26;20575;-80
2024/04/09 12:44:06;;;;;;;1.27;0.93;;;14.30;20.00;;;;;;5462561;26;20569;-78
2024/04/09 12:46:36;;;;;;;0.87;0.87;;;14.20;17.90;;;;;;5452593;26;21150;-79
2024/04/09 12:49:04;;;;;;;0.80;0.80;;;14.40;19.70;;;;;;5458609;26;20466;-80
2024/04/09 12:51:55;;;;;;;0.93;0.93;;;14.30;18.90;;;;;;5459296;26;20468;-78
2024/04/09 12:54:23;;;;;;;0.90;0.90;;;14.20;18.00;;;;;;5458481;26;20505;-79
2024/04/09 12:56:54;;;;;;;0.90;0.90;;;14.10;17.90;;;;;;5458805;26;21019;-79
2024/04/09 12:59:32;;;;;;;1.70;0.80;;;14.30;19.60;;;;;;5460627;26;20527;-78